createdAt,value
2023-02-15T00:00:55.779Z,100.00
2023-02-15T00:03:30.200Z,100.00
2023-02-15T00:06:05.502Z,100.00
2023-02-15T00:08:38.234Z,100.00
2023-02-15T00:11:13.127Z,100.00
2023-02-15T00:13:45.874Z,100.00
2023-02-15T00:16:18.631Z,100.00
2023-02-15T00:18:53.982Z,100.00
2023-02-15T00:21:28.095Z,100.00
2023-02-15T00:24:02.865Z,100.00
2023-02-15T00:26:36.515Z,100.00
2023-02-15T00:29:09.389Z,100.00
2023-02-15T00:31:42.301Z,100.00
2023-02-15T00:34:17.128Z,100.00
2023-02-15T00:36:51.713Z,100.00
2023-02-15T00:39:24.772Z,100.00
2023-02-15T00:41:57.504Z,100.00
2023-02-15T00:44:30.510Z,100.00
2023-02-15T00:47:03.319Z,100.00
2023-02-15T00:49:36.105Z,100.00
2023-02-15T00:52:10.237Z,100.00
2023-02-15T00:54:42.940Z,100.00
2023-02-15T00:57:15.710Z,100.00
2023-02-15T00:59:48.843Z,100.00
2023-02-15T01:02:21.625Z,100.00
2023-02-15T01:04:54.546Z,100.00
2023-02-15T01:07:30.427Z,100.00
2023-02-15T01:10:03.276Z,100.00
2023-02-15T01:12:36.309Z,100.00
2023-02-15T01:15:09.719Z,100.00
2023-02-15T01:17:44.965Z,100.00
2023-02-15T01:20:18.047Z,100.00
2023-02-15T01:22:52.769Z,100.00
2023-02-15T01:25:26.386Z,100.00
2023-02-15T01:27:59.116Z,100.00
2023-02-15T01:30:31.847Z,100.00
2023-02-15T01:33:04.760Z,100.00
2023-02-15T01:35:38.720Z,100.00
2023-02-15T01:38:12.953Z,100.00
2023-02-15T01:40:45.776Z,100.00
2023-02-15T01:43:19.140Z,100.00
2023-02-15T01:45:52.083Z,100.00
2023-02-15T01:48:29.394Z,100.00
2023-02-15T01:51:04.468Z,100.00
2023-02-15T01:53:42.259Z,100.00
2023-02-15T01:56:19.544Z,100.00
2023-02-15T01:58:58.752Z,100.00
2023-02-15T02:01:31.904Z,100.00
2023-02-15T02:04:11.214Z,100.00
2023-02-15T02:06:44.087Z,100.00
2023-02-15T02:09:18.246Z,100.00
2023-02-15T02:11:51.142Z,100.00
2023-02-15T02:14:25.573Z,100.00
2023-02-15T02:17:04.731Z,100.00
2023-02-15T02:19:59.935Z,100.00
2023-02-15T02:22:59.528Z,100.00
2023-02-15T02:26:22.859Z,100.00
2023-02-15T02:29:35.256Z,100.00
2023-02-15T02:32:33.215Z,100.00
2023-02-15T02:35:13.616Z,100.00
2023-02-15T02:37:50.531Z,100.00
2023-02-15T02:40:32.437Z,100.00
2023-02-15T02:43:12.710Z,100.00
2023-02-15T02:45:47.659Z,100.00
2023-02-15T02:48:23.657Z,100.00
2023-02-15T02:50:57.837Z,100.00
2023-02-15T02:53:33.269Z,100.00
2023-02-15T02:56:12.304Z,100.00
2023-02-15T02:58:49.609Z,100.00
2023-02-15T03:01:26.792Z,100.00
2023-02-15T03:04:03.394Z,100.00
2023-02-15T03:06:42.514Z,100.00
2023-02-15T03:09:20.626Z,100.00
2023-02-15T03:11:54.606Z,100.00
2023-02-15T03:14:29.225Z,100.00
2023-02-15T03:17:03.693Z,100.00
2023-02-15T03:19:38.678Z,100.00
2023-02-15T03:22:20.253Z,100.00
2023-02-15T03:24:58.874Z,100.00
2023-02-15T03:27:38.010Z,100.00
2023-02-15T03:30:13.098Z,100.00
2023-02-15T03:32:48.652Z,100.00
2023-02-15T03:35:27.076Z,100.00
2023-02-15T03:38:03.568Z,100.00
2023-02-15T03:40:57.212Z,100.00
2023-02-15T03:43:39.890Z,100.00
2023-02-15T03:46:18.509Z,100.00
2023-02-15T03:48:55.153Z,100.00
2023-02-15T03:51:39.047Z,100.00
2023-02-15T03:54:37.865Z,100.00
2023-02-15T03:57:31.652Z,100.00
2023-02-15T04:00:25.238Z,100.00
2023-02-15T04:03:11.213Z,100.00
2023-02-15T04:05:45.213Z,100.00
2023-02-15T04:08:17.925Z,100.00
2023-02-15T04:10:53.860Z,100.00
2023-02-15T04:13:34.017Z,100.00
2023-02-15T04:16:07.611Z,100.00
2023-02-15T04:19:02.329Z,100.00
2023-02-15T04:21:52.765Z,100.00
2023-02-15T04:24:43.365Z,100.00
2023-02-15T04:27:17.883Z,100.00
2023-02-15T04:29:51.048Z,100.00
2023-02-15T04:32:23.855Z,100.00
2023-02-15T04:34:56.647Z,100.00
2023-02-15T04:37:29.436Z,100.00
2023-02-15T04:40:02.267Z,100.00
2023-02-15T04:42:36.515Z,100.00
2023-02-15T04:45:09.791Z,100.00
2023-02-15T04:47:43.256Z,100.00
2023-02-15T04:50:16.119Z,100.00
2023-02-15T04:52:49.015Z,100.00
2023-02-15T04:55:22.224Z,100.00
2023-02-15T04:57:56.331Z,100.00
2023-02-15T05:00:29.653Z,100.00
2023-02-15T05:03:02.543Z,100.00
2023-02-15T05:05:35.286Z,100.00
2023-02-15T05:08:08.174Z,100.00
2023-02-15T05:10:40.877Z,100.00
2023-02-15T05:13:14.987Z,100.00
2023-02-15T05:15:51.348Z,100.00
2023-02-15T05:18:24.173Z,100.00
2023-02-15T05:20:56.989Z,100.00
2023-02-15T05:23:29.764Z,100.00
2023-02-15T05:26:19.959Z,100.00
2023-02-15T05:28:54.165Z,100.00
2023-02-15T05:31:27.245Z,100.00
2023-02-15T05:34:00.213Z,100.00
2023-02-15T05:36:33.010Z,100.00
2023-02-15T05:39:06.927Z,100.00
2023-02-15T05:41:39.985Z,100.00
2023-02-15T05:44:14.105Z,100.00
2023-02-15T05:46:46.944Z,100.00
2023-02-15T05:49:19.697Z,100.00
2023-02-15T05:51:52.527Z,100.00
2023-02-15T05:54:25.506Z,100.00
2023-02-15T05:56:58.380Z,100.00
2023-02-15T05:59:32.503Z,100.00
2023-02-15T06:02:07.414Z,100.00
2023-02-15T06:04:40.247Z,100.00
2023-02-15T06:07:13.379Z,100.00
2023-02-15T06:09:46.261Z,100.00
2023-02-15T06:12:19.186Z,100.00
2023-02-15T06:14:53.701Z,100.00
2023-02-15T06:17:26.686Z,100.00
2023-02-15T06:19:59.578Z,100.00
2023-02-15T06:22:32.479Z,100.00
2023-02-15T06:25:05.678Z,100.00
2023-02-15T06:27:38.632Z,100.00
2023-02-15T06:30:14.660Z,100.00
2023-02-15T06:32:47.710Z,100.00
2023-02-15T06:35:20.721Z,100.00
2023-02-15T06:37:53.716Z,100.00
2023-02-15T06:40:26.567Z,100.00
2023-02-15T06:42:59.363Z,100.00
2023-02-15T06:45:33.632Z,100.00
2023-02-15T06:48:07.900Z,100.00
2023-02-15T06:50:41.642Z,100.00
2023-02-15T06:53:14.355Z,100.00
2023-02-15T06:55:47.226Z,100.00
2023-02-15T06:58:20.038Z,100.00
2023-02-15T07:00:54.840Z,100.00
2023-02-15T07:03:27.867Z,100.00
2023-02-15T07:09:03.901Z,100.00
2023-02-15T07:11:54.437Z,100.00
2023-02-15T07:14:28.905Z,100.00
2023-02-15T07:17:03.188Z,100.00
2023-02-15T07:19:35.994Z,100.00
2023-02-15T07:22:08.756Z,100.00
2023-02-15T07:24:41.506Z,100.00
2023-02-15T07:27:14.249Z,100.00
2023-02-15T07:29:47.027Z,100.00
2023-02-15T07:32:21.514Z,100.00
2023-02-15T07:34:54.282Z,100.00
2023-02-15T07:37:27.838Z,100.00
2023-02-15T07:40:00.612Z,100.00
2023-02-15T07:42:33.390Z,100.00
2023-02-15T07:45:06.920Z,100.00
2023-02-15T07:47:41.012Z,100.00
2023-02-15T07:50:13.773Z,100.00
2023-02-15T07:52:46.601Z,100.00
2023-02-15T07:55:22.107Z,100.00
2023-02-15T07:57:55.024Z,100.00
2023-02-15T08:00:27.836Z,100.00
2023-02-15T08:03:17.053Z,100.00
2023-02-15T08:05:50.054Z,100.00
2023-02-15T08:08:31.915Z,100.00
2023-02-15T08:11:23.968Z,100.00
2023-02-15T08:14:00.331Z,100.00
2023-02-15T08:16:36.070Z,100.00
2023-02-15T08:19:13.079Z,100.00
2023-02-15T08:21:47.197Z,100.00
2023-02-15T08:24:22.469Z,100.00
2023-02-15T08:26:55.734Z,100.00
2023-02-15T08:29:30.197Z,100.00
2023-02-15T08:32:04.971Z,100.00
2023-02-15T08:34:41.912Z,100.00
2023-02-15T08:37:14.659Z,100.00
2023-02-15T08:39:47.437Z,100.00
2023-02-15T08:42:21.722Z,100.00
2023-02-15T08:44:54.791Z,100.00
2023-02-15T08:47:27.782Z,100.00
2023-02-15T08:50:01.904Z,100.00
2023-02-15T08:52:34.718Z,100.00
2023-02-15T08:55:07.929Z,100.00
2023-02-15T08:57:45.863Z,100.00
2023-02-15T09:00:19.839Z,100.00
2023-02-15T09:02:53.357Z,100.00
2023-02-15T09:05:27.554Z,100.00
2023-02-15T09:08:00.314Z,100.00
2023-02-15T09:10:33.087Z,100.00
2023-02-15T09:13:05.861Z,100.00
2023-02-15T09:15:38.604Z,100.00
2023-02-15T09:18:13.337Z,100.00
2023-02-15T09:20:50.487Z,100.00
2023-02-15T09:23:27.344Z,100.00
2023-02-15T09:26:04.800Z,100.00
2023-02-15T09:28:37.902Z,100.00
2023-02-15T09:31:13.617Z,100.00
2023-02-15T09:33:48.040Z,100.00
2023-02-15T09:36:24.142Z,100.00
2023-02-15T09:38:58.852Z,100.00
2023-02-15T09:41:49.356Z,100.00
2023-02-15T09:44:36.067Z,100.00
2023-02-15T09:47:28.091Z,100.00
2023-02-15T09:50:08.620Z,100.00
2023-02-15T09:53:00.651Z,100.00
2023-02-15T09:55:47.624Z,100.00
2023-02-15T09:58:33.311Z,100.00
2023-02-15T10:01:14.275Z,100.00
2023-02-15T10:04:03.715Z,100.00
2023-02-15T10:06:45.373Z,100.00
2023-02-15T10:09:36.192Z,100.00
2023-02-15T10:12:30.992Z,100.00
2023-02-15T10:15:22.277Z,100.00
2023-02-15T10:18:07.509Z,100.00
2023-02-15T10:20:49.122Z,100.00
2023-02-15T10:23:48.440Z,100.00
2023-02-15T10:26:24.755Z,100.00
2023-02-15T10:29:02.833Z,100.00
2023-02-15T10:31:48.674Z,100.00
2023-02-15T10:34:25.285Z,100.00
2023-02-15T10:37:19.651Z,100.00
2023-02-15T10:40:03.432Z,100.00
2023-02-15T10:42:55.638Z,100.00
2023-02-15T10:45:37.147Z,100.00
2023-02-15T10:48:46.175Z,100.00
2023-02-15T10:51:25.546Z,100.00
2023-02-15T10:54:10.629Z,100.00
2023-02-15T10:56:52.950Z,100.00
2023-02-15T10:59:49.482Z,100.00
2023-02-15T11:02:35.481Z,100.00
2023-02-15T11:05:23.454Z,100.00
2023-02-15T11:08:00.421Z,100.00
2023-02-15T11:10:39.580Z,100.00
2023-02-15T11:13:16.714Z,100.00
2023-02-15T11:15:56.004Z,100.00
2023-02-15T11:18:35.297Z,100.00
2023-02-15T11:21:15.254Z,100.00
2023-02-15T11:23:49.435Z,100.00
2023-02-15T11:26:30.588Z,99.48
2023-02-15T11:29:12.417Z,98.93
2023-02-15T11:31:50.100Z,98.22
2023-02-15T11:34:28.818Z,96.88
2023-02-15T11:37:07.332Z,96.47
2023-02-15T11:39:40.217Z,96.25
2023-02-15T11:42:18.094Z,95.13
2023-02-15T11:45:01.443Z,94.08
2023-02-15T11:47:35.988Z,93.98
2023-02-15T11:50:14.115Z,92.16
2023-02-15T11:52:47.270Z,92.75
2023-02-15T11:55:23.083Z,92.22
2023-02-15T11:58:01.429Z,92.35
2023-02-15T12:00:38.394Z,93.46
2023-02-15T12:03:18.414Z,94.20
2023-02-15T12:05:56.396Z,92.98
2023-02-15T12:08:38.392Z,91.46
2023-02-15T12:11:14.954Z,92.77
2023-02-15T12:13:57.793Z,92.24
2023-02-15T12:16:34.443Z,91.21
2023-02-15T12:19:22.380Z,90.91
2023-02-15T12:21:55.662Z,87.20
2023-02-15T12:24:31.657Z,86.39
2023-02-15T12:27:06.881Z,87.23
2023-02-15T12:29:45.072Z,88.01
2023-02-15T12:32:25.121Z,86.92
2023-02-15T12:35:09.794Z,86.01
2023-02-15T12:37:56.141Z,86.73
2023-02-15T12:40:31.478Z,85.42
2023-02-15T12:43:09.710Z,83.92
2023-02-15T12:45:42.596Z,81.97
2023-02-15T12:48:18.047Z,82.92
2023-02-15T12:50:56.339Z,83.66
2023-02-15T12:53:34.005Z,83.35
2023-02-15T12:56:09.881Z,83.81
2023-02-15T12:58:43.920Z,84.43
2023-02-15T13:01:18.774Z,83.46
2023-02-15T13:04:00.735Z,82.47
2023-02-15T13:06:36.685Z,83.97
2023-02-15T13:09:17.960Z,84.52
2023-02-15T13:11:51.244Z,83.56
2023-02-15T13:14:30.659Z,83.01
2023-02-15T13:17:07.827Z,81.93
2023-02-15T13:19:44.927Z,82.77
2023-02-15T13:22:22.626Z,83.11
2023-02-15T13:24:59.276Z,82.32
2023-02-15T13:27:38.598Z,82.89
2023-02-15T13:30:22.629Z,81.90
2023-02-15T13:33:00.200Z,80.46
2023-02-15T13:35:43.321Z,81.45
2023-02-15T13:38:45.546Z,81.56
2023-02-15T13:41:22.565Z,80.10
2023-02-15T13:44:04.561Z,79.77
2023-02-15T13:46:51.060Z,80.35
2023-02-15T13:49:43.983Z,79.65
2023-02-15T13:52:22.806Z,81.14
2023-02-15T13:55:12.571Z,82.63
2023-02-15T13:58:24.843Z,82.62
2023-02-15T14:01:08.396Z,81.52
2023-02-15T14:04:01.473Z,82.40
2023-02-15T14:06:50.613Z,80.45
2023-02-15T14:09:40.835Z,79.62
2023-02-15T14:12:37.397Z,81.90
2023-02-15T14:15:30.629Z,80.46
2023-02-15T14:18:17.210Z,79.11
2023-02-15T14:21:04.698Z,80.08
2023-02-15T14:23:54.855Z,79.46
2023-02-15T14:26:39.304Z,79.36
2023-02-15T14:29:25.333Z,79.53
2023-02-15T14:32:02.737Z,77.78
2023-02-15T14:34:44.375Z,80.25
2023-02-15T14:37:25.097Z,80.76
2023-02-15T14:40:20.490Z,79.95
2023-02-15T14:42:59.575Z,82.57
2023-02-15T14:45:43.887Z,81.42
2023-02-15T14:48:23.854Z,81.90
2023-02-15T14:50:56.712Z,82.45
2023-02-15T14:53:39.317Z,83.19
2023-02-15T14:56:26.987Z,81.87
2023-02-15T14:59:21.872Z,81.05
2023-02-15T15:01:59.471Z,81.48
2023-02-15T15:04:36.371Z,79.48
2023-02-15T15:07:21.350Z,80.53
2023-02-15T15:10:04.529Z,80.31
2023-02-15T15:12:42.863Z,80.95
2023-02-15T15:15:34.345Z,83.48
2023-02-15T15:18:09.921Z,82.73
2023-02-15T15:20:51.672Z,80.97
2023-02-15T15:23:52.412Z,81.33
2023-02-15T15:26:34.288Z,82.14
2023-02-15T15:29:08.597Z,83.48
2023-02-15T15:31:53.726Z,82.18
2023-02-15T15:35:02.372Z,82.40
2023-02-15T15:38:07.214Z,83.92
2023-02-15T15:40:50.465Z,84.61
2023-02-15T15:43:58.926Z,86.36
2023-02-15T15:46:56.402Z,85.47
2023-02-15T15:49:32.774Z,85.18
2023-02-15T15:52:16.494Z,84.85
2023-02-15T15:54:54.574Z,85.03
2023-02-15T15:57:32.261Z,84.92
2023-02-15T16:00:07.332Z,85.00
2023-02-15T16:02:52.453Z,88.48
2023-02-15T16:05:25.940Z,89.93
2023-02-15T16:08:00.323Z,89.62
2023-02-15T16:10:35.021Z,90.44
2023-02-15T16:13:08.929Z,89.84
2023-02-15T16:15:50.344Z,91.52
2023-02-15T16:18:26.860Z,90.77
2023-02-15T16:21:02.380Z,90.38
2023-02-15T16:24:01.779Z,88.74
2023-02-15T16:26:52.031Z,89.52
2023-02-15T16:29:30.176Z,90.01
2023-02-15T16:32:05.179Z,91.03
2023-02-15T16:34:38.012Z,90.80
2023-02-15T16:37:18.026Z,90.43
2023-02-15T16:39:52.631Z,88.93
2023-02-15T16:42:26.003Z,88.88
2023-02-15T16:45:06.481Z,89.52
2023-02-15T16:47:41.979Z,90.32
2023-02-15T16:50:21.569Z,89.95
2023-02-15T16:52:55.086Z,90.05
2023-02-15T16:55:33.183Z,89.74
2023-02-15T16:58:08.806Z,91.07
2023-02-15T17:00:42.517Z,91.46
2023-02-15T17:03:26.779Z,91.52
2023-02-15T17:06:01.854Z,92.74
2023-02-15T17:08:45.368Z,95.36
2023-02-15T17:11:22.191Z,98.80
2023-02-15T17:14:22.695Z,97.60
2023-02-15T17:16:57.382Z,100.00
2023-02-15T17:19:33.401Z,100.00
2023-02-15T17:22:08.380Z,100.00
2023-02-15T17:24:43.571Z,100.00
2023-02-15T17:27:20.677Z,100.00
2023-02-15T17:29:57.571Z,100.00
2023-02-15T17:32:34.165Z,100.00
2023-02-15T17:35:11.201Z,100.00
2023-02-15T17:37:46.866Z,100.00
2023-02-15T17:40:25.227Z,100.00
2023-02-15T17:42:59.538Z,100.00
2023-02-15T17:45:35.044Z,100.00
2023-02-15T17:48:16.812Z,100.00
2023-02-15T17:50:50.022Z,99.72
2023-02-15T17:53:22.935Z,100.00
2023-02-15T17:55:54.861Z,100.00
2023-02-15T17:58:29.165Z,100.00
2023-02-15T18:01:23.830Z,100.00
2023-02-15T18:04:15.211Z,100.00
2023-02-15T18:07:05.618Z,100.00
2023-02-15T18:09:56.227Z,100.00
2023-02-15T18:12:31.751Z,100.00
2023-02-15T18:15:10.880Z,100.00
2023-02-15T18:17:48.328Z,100.00
2023-02-15T18:20:26.906Z,100.00
2023-02-15T18:23:01.988Z,100.00
2023-02-15T18:25:34.817Z,100.00
2023-02-15T18:28:07.614Z,100.00
2023-02-15T18:30:43.918Z,100.00
2023-02-15T18:33:30.430Z,100.00
2023-02-15T18:36:04.808Z,100.00
2023-02-15T18:38:37.829Z,100.00
2023-02-15T18:41:18.967Z,100.00
2023-02-15T18:43:53.790Z,100.00
2023-02-15T18:46:27.899Z,100.00
2023-02-15T18:49:00.684Z,100.00
2023-02-15T18:51:40.326Z,100.00
2023-02-15T18:54:19.959Z,100.00
2023-02-15T18:56:56.077Z,100.00
2023-02-15T18:59:30.516Z,100.00
2023-02-15T19:02:07.057Z,100.00
2023-02-15T19:04:39.944Z,100.00
2023-02-15T19:07:18.637Z,100.00
2023-02-15T19:09:54.814Z,100.00
2023-02-15T19:12:29.594Z,100.00
2023-02-15T19:15:02.671Z,100.00
2023-02-15T19:17:36.864Z,100.00
2023-02-15T19:20:16.436Z,100.00
2023-02-15T19:22:50.924Z,100.00
2023-02-15T19:25:27.230Z,100.00
2023-02-15T19:28:00.598Z,100.00
2023-02-15T19:30:33.963Z,100.00
2023-02-15T19:33:17.715Z,100.00
2023-02-15T19:35:54.245Z,100.00
2023-02-15T19:38:32.002Z,100.00
2023-02-15T19:41:08.338Z,100.00
2023-02-15T19:43:41.220Z,100.00
2023-02-15T19:46:19.862Z,100.00
2023-02-15T19:48:57.433Z,100.00
2023-02-15T19:51:30.314Z,100.00
2023-02-15T19:54:05.420Z,100.00
2023-02-15T19:56:38.268Z,100.00
2023-02-15T19:59:22.975Z,100.00
2023-02-15T20:01:59.625Z,100.00
2023-02-15T20:04:34.327Z,100.00
2023-02-15T20:07:11.433Z,100.00
2023-02-15T20:09:44.602Z,100.00
2023-02-15T20:12:21.745Z,100.00
2023-02-15T20:14:54.610Z,100.00
2023-02-15T20:17:27.428Z,100.00
2023-02-15T20:20:01.710Z,100.00
2023-02-15T20:22:35.940Z,100.00
2023-02-15T20:25:14.135Z,100.00
2023-02-15T20:27:47.846Z,100.00
2023-02-15T20:30:23.917Z,100.00
2023-02-15T20:32:56.965Z,100.00
2023-02-15T20:35:31.556Z,100.00
2023-02-15T20:38:05.605Z,100.00
2023-02-15T20:40:58.830Z,100.00
2023-02-15T20:43:31.696Z,100.00
2023-02-15T20:46:05.222Z,100.00
2023-02-15T20:48:38.341Z,100.00
2023-02-15T20:51:18.261Z,100.00
2023-02-15T20:53:51.154Z,100.00
2023-02-15T20:56:25.831Z,100.00
2023-02-15T20:58:58.666Z,100.00
2023-02-15T21:01:32.249Z,100.00
2023-02-15T21:04:07.270Z,100.00
2023-02-15T21:06:42.908Z,100.00
2023-02-15T21:09:17.528Z,100.00
2023-02-15T21:11:52.872Z,100.00
2023-02-15T21:14:27.653Z,100.00
2023-02-15T21:17:00.546Z,100.00
2023-02-15T21:19:33.387Z,100.00
2023-02-15T21:22:07.804Z,100.00
2023-02-15T21:24:44.482Z,100.00
2023-02-15T21:27:17.953Z,100.00
2023-02-15T21:29:50.868Z,100.00
2023-02-15T21:32:24.018Z,100.00
2023-02-15T21:34:56.851Z,100.00
2023-02-15T21:37:34.150Z,100.00
2023-02-15T21:40:15.835Z,100.00
2023-02-15T21:43:06.563Z,100.00
2023-02-15T21:46:11.381Z,100.00
2023-02-15T21:48:46.044Z,100.00
2023-02-15T21:51:36.793Z,100.00
2023-02-15T21:54:13.669Z,100.00
2023-02-15T21:56:48.324Z,100.00
2023-02-15T21:59:21.323Z,100.00
2023-02-15T22:01:54.233Z,100.00
2023-02-15T22:04:28.331Z,100.00
2023-02-15T22:07:01.160Z,100.00
2023-02-15T22:09:35.374Z,100.00
2023-02-15T22:12:15.742Z,100.00
2023-02-15T22:14:51.452Z,100.00
2023-02-15T22:17:28.151Z,100.00
2023-02-15T22:20:01.330Z,100.00
2023-02-15T22:22:34.779Z,100.00
2023-02-15T22:25:09.730Z,100.00
2023-02-15T22:27:44.644Z,100.00
2023-02-15T22:30:22.616Z,100.00
2023-02-15T22:32:56.852Z,100.00
2023-02-15T22:35:31.784Z,100.00
2023-02-15T22:38:04.712Z,100.00
2023-02-15T22:40:38.923Z,100.00
2023-02-15T22:43:31.995Z,100.00
2023-02-15T22:46:06.799Z,100.00
2023-02-15T22:48:39.726Z,100.00
2023-02-15T22:51:14.055Z,100.00
2023-02-15T22:53:49.776Z,100.00
2023-02-15T22:56:35.387Z,100.00
2023-02-15T22:59:11.882Z,100.00
2023-02-15T23:01:45.019Z,100.00
2023-02-15T23:04:19.768Z,100.00
2023-02-15T23:06:53.544Z,100.00
2023-02-15T23:09:26.438Z,100.00
2023-02-15T23:12:00.562Z,100.00
2023-02-15T23:14:36.290Z,100.00
2023-02-15T23:17:09.784Z,100.00
2023-02-15T23:19:42.873Z,100.00
2023-02-15T23:22:16.516Z,100.00
2023-02-15T23:24:53.716Z,100.00
2023-02-15T23:27:56.847Z,100.00
2023-02-15T23:30:30.023Z,100.00
2023-02-15T23:33:03.123Z,100.00
2023-02-15T23:35:36.215Z,100.00
2023-02-15T23:38:19.443Z,100.00
2023-02-15T23:41:13.893Z,100.00
2023-02-15T23:43:51.321Z,100.00
2023-02-15T23:46:28.228Z,100.00
2023-02-15T23:49:01.153Z,100.00
2023-02-15T23:51:33.958Z,100.00
2023-02-15T23:54:06.905Z,100.00
2023-02-15T23:56:40.615Z,100.00
2023-02-15T23:59:17.637Z,100.00
